createdAt,value
2024-04-24T00:02:29.305Z,12.50
2024-04-24T00:06:37.326Z,12.77
2024-04-24T00:10:42.726Z,12.03
2024-04-24T00:14:48.313Z,11.47
2024-04-24T00:18:53.803Z,11.20
2024-04-24T00:23:02.444Z,11.60
2024-04-24T00:27:07.668Z,9.17
2024-04-24T00:31:13.054Z,10.13
2024-04-24T00:35:18.542Z,9.30
2024-04-24T00:39:27.167Z,9.13
2024-04-24T00:43:32.434Z,9.43
2024-04-24T00:47:39.977Z,8.40
2024-04-24T00:51:46.580Z,6.80
2024-04-24T00:55:55.088Z,7.90
2024-04-24T01:00:00.536Z,6.70
2024-04-24T01:04:05.982Z,7.40
2024-04-24T01:08:11.489Z,7.50
2024-04-24T01:12:19.442Z,6.77
2024-04-24T01:16:31.543Z,7.10
2024-04-24T01:20:37.521Z,6.23
2024-04-24T01:24:50.853Z,6.40
2024-04-24T01:28:58.964Z,8.23
2024-04-24T01:33:04.530Z,7.33
2024-04-24T01:37:09.844Z,6.17
2024-04-24T01:41:15.040Z,6.33
2024-04-24T01:45:23.103Z,6.53
2024-04-24T01:49:28.408Z,5.67
2024-04-24T01:53:33.820Z,6.40
2024-04-24T01:57:39.130Z,5.20
2024-04-24T02:01:47.044Z,6.07
2024-04-24T02:05:52.300Z,4.60
2024-04-24T02:09:58.584Z,5.40
2024-04-24T02:14:03.917Z,5.20
2024-04-24T02:18:12.428Z,4.97
2024-04-24T02:22:17.802Z,6.13
2024-04-24T02:26:23.294Z,4.83
2024-04-24T02:30:29.002Z,5.03
2024-04-24T02:34:38.511Z,5.40
2024-04-24T02:38:43.817Z,4.97
2024-04-24T02:42:49.692Z,5.60
2024-04-24T02:46:55.044Z,4.37
2024-04-24T02:51:04.965Z,5.17
2024-04-24T02:55:11.742Z,4.63
2024-04-24T02:59:18.568Z,4.67
2024-04-24T03:03:23.915Z,5.13
2024-04-24T03:07:32.647Z,5.50
2024-04-24T03:11:37.905Z,4.50
2024-04-24T03:15:43.896Z,3.93
2024-04-24T03:19:50.772Z,5.70
2024-04-24T03:23:58.949Z,5.50
2024-04-24T03:28:04.157Z,6.60
2024-04-24T03:32:10.375Z,6.37
2024-04-24T03:36:16.858Z,7.53
2024-04-24T03:40:25.583Z,7.57
2024-04-24T03:44:30.946Z,8.10
2024-04-24T03:48:38.046Z,5.60
2024-04-24T03:52:46.398Z,5.70
2024-04-24T03:56:57.463Z,7.63
2024-04-24T04:01:04.255Z,6.27
2024-04-24T04:05:10.466Z,6.10
2024-04-24T04:09:15.790Z,6.57
2024-04-24T04:13:24.812Z,6.00
2024-04-24T04:17:30.916Z,4.77
2024-04-24T04:21:36.299Z,5.20
2024-04-24T04:25:41.529Z,6.30
2024-04-24T04:29:49.425Z,5.53
2024-04-24T04:33:55.667Z,4.87
2024-04-24T04:38:04.949Z,3.90
2024-04-24T04:42:10.294Z,4.20
2024-04-24T04:46:19.986Z,4.20
2024-04-24T04:50:25.771Z,3.67
2024-04-24T04:54:35.083Z,2.83
2024-04-24T04:58:40.841Z,3.83
2024-04-24T05:02:49.486Z,4.77
2024-04-24T05:06:59.590Z,3.43
2024-04-24T05:11:06.573Z,3.20
2024-04-24T05:15:12.313Z,3.50
2024-04-24T05:19:20.460Z,2.60
2024-04-24T05:23:26.836Z,20.67
2024-04-24T05:27:56.077Z,5.63
2024-04-24T05:32:06.427Z,15.70
2024-04-24T05:36:18.505Z,9.90
2024-04-24T05:40:26.418Z,4.43
2024-04-24T05:44:36.771Z,4.93
2024-04-24T05:48:43.210Z,4.20
2024-04-24T05:52:51.296Z,3.70
2024-04-24T05:56:57.112Z,4.00
2024-04-24T06:01:03.040Z,6.47
2024-04-24T06:05:09.129Z,4.87
2024-04-24T06:09:19.295Z,5.17
2024-04-24T06:13:24.739Z,5.33
2024-04-24T06:17:30.210Z,6.20
2024-04-24T06:21:35.697Z,4.77
2024-04-24T06:25:48.636Z,4.60
2024-04-24T06:29:55.888Z,5.57
2024-04-24T06:34:02.224Z,4.10
2024-04-24T06:38:09.659Z,5.30
2024-04-24T06:42:21.118Z,6.90
2024-04-24T06:46:28.197Z,6.00
2024-04-24T06:50:33.995Z,4.47
2024-04-24T06:54:39.819Z,3.73
2024-04-24T06:58:48.156Z,3.83
2024-04-24T07:02:55.678Z,1.30
2024-04-24T07:07:03.751Z,3.57
2024-04-24T07:11:09.709Z,1.90
2024-04-24T07:15:18.360Z,5.33
2024-04-24T07:19:23.897Z,2.13
2024-04-24T07:23:31.302Z,7.53
2024-04-24T07:27:39.651Z,2.40
2024-04-24T07:31:48.719Z,1.10
2024-04-24T07:35:55.375Z,5.00
2024-04-24T07:40:01.397Z,2.70
2024-04-24T07:44:07.327Z,1.30
2024-04-24T07:48:15.501Z,1.50
2024-04-24T07:52:20.989Z,1.17
2024-04-24T07:56:27.474Z,4.47
2024-04-24T08:00:34.323Z,5.10
2024-04-24T08:10:25.903Z,6.23
2024-04-24T08:15:19.053Z,5.77
2024-04-24T08:19:24.325Z,5.60
2024-04-24T08:23:30.421Z,6.50
2024-04-24T08:27:42.301Z,4.97
2024-04-24T08:31:55.796Z,5.00
2024-04-24T08:36:23.209Z,4.83
2024-04-24T08:40:30.645Z,6.00
2024-04-24T08:44:49.790Z,6.57
2024-04-24T08:48:57.143Z,6.17
2024-04-24T08:53:07.012Z,5.07
2024-04-24T08:57:15.970Z,3.77
2024-04-24T09:01:41.003Z,1.23
2024-04-24T09:05:50.318Z,0.97
2024-04-24T09:09:57.239Z,0.80
2024-04-24T09:14:07.855Z,1.03
2024-04-24T09:18:17.879Z,0.50
2024-04-24T09:22:25.553Z,1.20
2024-04-24T09:26:36.346Z,0.80
2024-04-24T09:47:13.776Z,0.80
2024-04-24T09:51:22.642Z,1.00
2024-04-24T09:55:35.272Z,0.60
2024-04-24T09:59:46.532Z,0.80
2024-04-24T10:03:57.164Z,0.60
2024-04-24T10:08:07.223Z,0.50
2024-04-24T10:12:26.814Z,0.70
2024-04-24T10:16:35.723Z,0.53
2024-04-24T10:20:47.819Z,0.80
2024-04-24T10:24:58.115Z,1.00
2024-04-24T10:29:06.003Z,0.80
2024-04-24T10:33:12.867Z,0.67
2024-04-24T10:37:21.121Z,0.80
2024-04-24T10:41:27.162Z,0.80
2024-04-24T10:45:41.791Z,0.90
2024-04-24T10:49:58.332Z,0.77
2024-04-24T10:54:17.636Z,0.60
2024-04-24T10:58:25.103Z,0.70
2024-04-24T11:02:30.915Z,0.83
2024-04-24T11:06:36.429Z,0.80
2024-04-24T11:10:53.454Z,0.90
2024-04-24T11:14:59.446Z,0.70
2024-04-24T11:19:23.553Z,0.90
2024-04-24T11:23:30.876Z,0.73
2024-04-24T11:27:39.336Z,1.00
2024-04-24T11:32:21.366Z,1.00
2024-04-24T11:36:30.148Z,1.03
2024-04-24T11:40:35.998Z,1.00
2024-04-24T11:44:46.640Z,0.80
2024-04-24T11:48:55.311Z,1.00
2024-04-24T11:53:06.455Z,1.00
2024-04-24T11:57:12.220Z,0.80
2024-04-24T12:01:20.900Z,0.93
2024-04-24T12:05:28.505Z,1.00
2024-04-24T12:09:33.796Z,1.00
2024-04-24T12:13:39.427Z,1.20
2024-04-24T12:17:48.474Z,1.70
2024-04-24T12:21:53.705Z,1.97
2024-04-24T12:26:00.400Z,1.50
2024-04-24T12:30:07.409Z,2.43
2024-04-24T12:34:21.139Z,1.67
2024-04-24T12:38:27.034Z,2.10
2024-04-24T12:42:34.490Z,2.03
2024-04-24T12:46:40.744Z,2.00
2024-04-24T12:50:50.805Z,1.87
2024-04-24T12:54:58.273Z,2.10
2024-04-24T12:59:03.778Z,1.50
2024-04-24T13:03:09.242Z,2.00
2024-04-24T13:07:17.895Z,2.40
2024-04-24T13:11:23.960Z,2.03
2024-04-24T13:15:29.266Z,2.33
2024-04-24T13:19:35.447Z,1.80
2024-04-24T13:23:44.003Z,2.20
2024-04-24T13:27:50.462Z,1.80
2024-04-24T13:31:55.777Z,1.70
2024-04-24T13:36:01.089Z,1.63
2024-04-24T13:40:11.664Z,1.67
2024-04-24T13:44:27.621Z,2.10
2024-04-24T13:48:35.411Z,2.30
2024-04-24T14:09:01.106Z,2.33
2024-04-24T14:13:10.865Z,2.50
2024-04-24T14:17:17.088Z,1.90
2024-04-24T14:21:22.833Z,2.90
2024-04-24T14:25:34.782Z,2.20
2024-04-24T14:29:43.876Z,1.80
2024-04-24T14:33:50.334Z,2.40
2024-04-24T14:37:57.316Z,2.20
2024-04-24T14:42:05.886Z,2.20
2024-04-24T14:46:15.083Z,2.20
2024-04-24T14:50:22.448Z,1.93
2024-04-24T14:54:28.043Z,2.60
2024-04-24T14:58:39.741Z,2.30
2024-04-24T15:02:48.056Z,2.33
2024-04-24T15:07:04.791Z,1.93
2024-04-24T15:11:10.627Z,4.63
2024-04-24T15:15:19.290Z,3.87
2024-04-24T15:19:24.618Z,2.80
2024-04-24T15:23:31.739Z,2.33
2024-04-24T15:27:38.641Z,2.10
2024-04-24T15:31:50.455Z,2.63
2024-04-24T15:35:56.073Z,2.00
2024-04-24T15:40:01.938Z,3.27
2024-04-24T15:44:07.404Z,2.10
2024-04-24T15:49:04.694Z,2.20
2024-04-24T15:53:11.022Z,2.03
2024-04-24T15:57:34.824Z,2.80
2024-04-24T16:01:41.029Z,1.90
2024-04-24T16:05:50.114Z,1.93
2024-04-24T16:09:59.521Z,2.57
2024-04-24T16:14:05.851Z,1.80
2024-04-24T16:18:11.958Z,2.10
2024-04-24T16:22:20.992Z,2.03
2024-04-24T16:26:30.686Z,2.03
2024-04-24T16:30:42.724Z,1.97
2024-04-24T16:34:48.832Z,2.63
2024-04-24T16:38:57.838Z,1.47
2024-04-24T16:43:04.740Z,2.50
2024-04-24T16:47:10.419Z,2.30
2024-04-24T16:51:19.200Z,2.57
2024-04-24T16:55:28.524Z,1.97
2024-04-24T16:59:34.581Z,2.67
2024-04-24T17:03:41.898Z,2.40
2024-04-24T17:07:51.836Z,2.63
2024-04-24T17:12:02.520Z,3.63
2024-04-24T17:16:10.902Z,2.23
2024-04-24T17:20:16.291Z,2.90
2024-04-24T17:24:25.652Z,4.60
2024-04-24T17:28:34.808Z,2.80
2024-04-24T17:32:41.804Z,3.10
2024-04-24T17:36:50.635Z,3.07
2024-04-24T17:40:58.347Z,4.07
2024-04-24T17:45:09.990Z,3.43
2024-04-24T17:49:17.343Z,5.57
2024-04-24T17:53:31.592Z,6.50
2024-04-24T17:57:41.761Z,5.33
2024-04-24T18:01:52.799Z,3.83
2024-04-24T18:05:59.586Z,4.27
2024-04-24T18:10:07.049Z,3.93
2024-04-24T18:14:14.565Z,3.97
2024-04-24T18:18:29.156Z,3.53
2024-04-24T18:22:42.836Z,4.10
2024-04-24T18:26:52.431Z,4.00
2024-04-24T18:30:58.967Z,4.10
2024-04-24T18:35:10.302Z,3.97
2024-04-24T18:39:25.736Z,4.03
2024-04-24T18:43:41.022Z,4.10
2024-04-24T18:47:48.485Z,3.90
2024-04-24T18:51:59.917Z,4.20
2024-04-24T18:56:10.012Z,3.93
2024-04-24T19:00:20.944Z,7.10
2024-04-24T19:04:29.617Z,9.30
2024-04-24T19:08:41.456Z,6.83
2024-04-24T19:12:48.673Z,4.87
2024-04-24T19:16:57.913Z,5.57
2024-04-24T19:21:10.439Z,7.03
2024-04-24T19:25:23.441Z,5.80
2024-04-24T19:29:30.756Z,8.40
2024-04-24T19:33:41.185Z,5.97
2024-04-24T19:37:55.207Z,5.83
2024-04-24T19:42:09.034Z,5.00
2024-04-24T19:46:18.192Z,5.87
2024-04-24T19:50:28.432Z,5.03
2024-04-24T19:54:38.959Z,6.07
2024-04-24T19:58:49.701Z,6.13
2024-04-24T20:02:57.624Z,5.67
2024-04-24T20:07:10.247Z,5.63
2024-04-24T20:11:18.112Z,4.23
2024-04-24T20:15:26.948Z,4.90
2024-04-24T20:19:34.710Z,5.50
2024-04-24T20:23:41.745Z,5.07
2024-04-24T20:27:49.435Z,5.53
2024-04-24T20:31:58.497Z,6.10
2024-04-24T20:36:03.827Z,5.73
2024-04-24T20:40:11.017Z,5.20
2024-04-24T20:44:23.669Z,5.83
2024-04-24T20:48:34.923Z,4.57
2024-04-24T20:52:41.546Z,6.00
2024-04-24T20:56:48.025Z,5.03
2024-04-24T21:00:55.247Z,6.23
2024-04-24T21:05:11.592Z,5.90
2024-04-24T21:09:18.949Z,6.20
2024-04-24T21:13:25.526Z,5.93
2024-04-24T21:17:31.907Z,5.93
2024-04-24T21:21:48.960Z,6.53
2024-04-24T21:25:55.769Z,6.33
2024-04-24T21:30:01.444Z,6.60
2024-04-24T21:34:06.741Z,6.77
2024-04-24T21:38:15.162Z,6.50
2024-04-24T21:42:21.362Z,7.20
2024-04-24T21:46:27.781Z,7.33
2024-04-24T21:50:36.708Z,6.50
2024-04-24T21:54:44.720Z,7.13
2024-04-24T21:58:50.214Z,6.70
2024-04-24T22:02:57.295Z,6.53
2024-04-24T22:07:03.633Z,7.30
2024-04-24T22:11:16.243Z,7.00
2024-04-24T22:15:21.687Z,6.20
2024-04-24T22:19:27.005Z,7.77
2024-04-24T22:23:34.456Z,7.73
2024-04-24T22:27:44.462Z,7.00
2024-04-24T22:31:50.101Z,6.77
2024-04-24T22:35:55.485Z,7.17
2024-04-24T22:40:00.891Z,6.77
2024-04-24T22:44:10.132Z,7.60
2024-04-24T22:48:17.997Z,7.53
2024-04-24T22:52:23.290Z,7.63
2024-04-24T22:56:28.686Z,7.43
2024-04-24T23:00:40.008Z,6.40
2024-04-24T23:04:45.531Z,7.40
2024-04-24T23:08:53.223Z,6.53
2024-04-24T23:12:58.505Z,6.83
2024-04-24T23:17:06.559Z,8.67
2024-04-24T23:21:13.505Z,8.47
2024-04-24T23:25:19.782Z,7.00
2024-04-24T23:29:25.139Z,7.40
2024-04-24T23:33:34.694Z,8.03
2024-04-24T23:37:39.983Z,9.53
2024-04-24T23:41:45.258Z,8.53
2024-04-24T23:45:50.638Z,8.70
2024-04-24T23:49:58.665Z,8.70
2024-04-24T23:54:05.074Z,8.10
2024-04-24T23:58:11.305Z,8.67
